EPWR/WRO METAR and TAF weather

Enter ICAO airport designator
Station Type Date Time Source
EPWR METAR 2021/07/30 06:30 UTC NOAA

EPWR 300630Z 26007KT CAVOK 19/12 Q1012


Station Type Date Time Source
EPWR Decoded METAR 2021/07/30 06:30 UTC NOAA

Wroclaw Ii, Poland (EPWR) 51-06N 016-53E 121M
Jul 30, 2021 - 02:30 AM EDT / 2021.07.30 0630 UTC
Wind: from the W (260 degrees) at 8 MPH (7 KT):0
Visibility: greater than 7 mile(s):0
Temperature: 66 F (19 C)
Dew Point: 53 F (12 C)
Relative Humidity: 63%
Pressure (altimeter): 29.88 in. Hg (1012 hPa)
ob: EPWR 300630Z 26007KT CAVOK 19/12 Q1012
cycle: 6

Station Type Date Time Source
EPWR TAF 2021/07/30 06:33 UTC NOAA

TAF EPWR 300530Z 3006/3106 25002KT CAVOK
BECMG 3007/3010 27012KT
BECMG 3016/3019 VRB02KT

Example: see airport list